Lincoln, United Kingdom
Current Conditions -  °F | °C
As of 7:50 PM on Friday 24 Oct 2014 (Local Time) from EGXW Reporting Station
Broken Clouds Broken Clouds  
Wind Chill: 52°   Ceiling: 4000
Heat Index: 52°   Visibility: 6mi
Dew Point: 50°   Wind: 6mph
Humidity: 94%   Direction: 270°W
Pressure: 29.88"   Gusts: NA
Location:  53.23°N, 0.54°W
Report Text: EGXW 241850Z 27005KT 9999 BKN040 BKN050 11/10 Q1012 BLU
Loading
Personal Weather Stations






























Interactive Weather Map
Tropical Storm Tracking
New forecast layout! Learn more

10-Day Weather Forecast

Advertisements
Track Severe Weather on mobile